This is the latest recevied weather packets stored in our database for station/object IU2EVW-13. If no packets are shown the sender has not sent any weather packets the latest 10 day(s).
| Time | Temp. | Humidity | Pressure | Rain* | Wind** | Luminosity | Snow |
|---|---|---|---|---|---|---|---|
| 1787852683 | 23.89° C | 55% | 1021.1 hPa | - | - | - | - |
| 1787851482 | 23.89° C | 56% | 1021 hPa | - | - | - | - |
| 1787850280 | 24.44° C | 56% | 1020.9 hPa | - | - | - | - |
| 1787849078 | 25° C | 54% | 1020.9 hPa | - | - | - | - |
| 1787847877 | 25.56° C | 56% | 1020.9 hPa | - | - | - | - |
| 1787846674 | 27.78° C | 47% | 1020.7 hPa | - | - | - | - |
| 1787845473 | 30.56° C | 39% | 1020.5 hPa | - | - | - | - |
| 1787844271 | 29.44° C | 43% | 1020.4 hPa | - | - | - | - |
| 1787843070 | 29.44° C | 42% | 1020.4 hPa | - | - | - | - |
| 1787841869 | 28.33° C | 47% | 1020.4 hPa | - | - | - | - |
| 1787840667 | 28.89° C | 45% | 1020.3 hPa | - | - | - | - |
| 1787839466 | 27.78° C | 50% | 1020.5 hPa | - | - | - | - |
| 1787838265 | 27.22° C | 50% | 1020.6 hPa | - | - | - | - |
| 1787837064 | 28.33° C | 49% | 1020.5 hPa | - | - | - | - |
| 1787835862 | 26.67° C | 52% | 1020.5 hPa | - | - | - | - |
| 1787834661 | 26.11° C | 51% | 1020.5 hPa | - | - | - | - |
| 1787833460 | 25.56° C | 52% | 1020.7 hPa | - | - | - | - |
| 1787832259 | 25° C | 55% | 1020.6 hPa | - | - | - | - |
| 1787831054 | 26.11° C | 50% | 1020.6 hPa | - | - | - | - |
| 1787829852 | 26.11° C | 49% | 1020.8 hPa | - | - | - | - |
| 1787828651 | 25° C | 52% | 1020.9 hPa | - | - | - | - |
| 1787827449 | 24.44° C | 55% | 1020.9 hPa | - | - | - | - |
| 1787826248 | 25° C | 52% | 1021 hPa | - | - | - | - |
| 1787825047 | 23.89° C | 58% | 1021.3 hPa | - | - | - | - |
| 1787823846 | 22.78° C | 60% | 1021.3 hPa | - | - | - | - |
* Rain since midnight (hover to see other rain measurements)
** Current wind speed in m/s (hover to see current wind gust speed)